createdAt,value
2023-03-15T00:01:37.973Z,50.34
2023-03-15T00:04:39.632Z,50.17
2023-03-15T00:07:41.504Z,50.05
2023-03-15T00:10:44.897Z,49.79
2023-03-15T00:13:47.504Z,49.67
2023-03-15T00:16:49.715Z,49.44
2023-03-15T00:19:51.538Z,49.42
2023-03-15T00:22:53.297Z,49.50
2023-03-15T00:25:55.410Z,49.48
2023-03-15T00:28:57.149Z,49.67
2023-03-15T00:31:59.121Z,49.88
2023-03-15T00:35:01.739Z,50.12
2023-03-15T00:38:05.624Z,50.05
2023-03-15T00:41:10.528Z,50.09
2023-03-15T00:44:12.750Z,50.12
2023-03-15T00:47:14.953Z,50.15
2023-03-15T00:50:16.831Z,50.04
2023-03-15T00:53:18.503Z,49.96
2023-03-15T00:56:23.448Z,49.99
2023-03-15T00:59:25.577Z,49.69
2023-03-15T01:02:27.297Z,49.72
2023-03-15T01:05:28.951Z,49.64
2023-03-15T01:08:31.447Z,49.55
2023-03-15T01:11:35.080Z,49.64
2023-03-15T01:14:39.029Z,49.86
2023-03-15T01:17:42.071Z,49.88
2023-03-15T01:20:44.956Z,49.81
2023-03-15T01:23:46.933Z,49.92
2023-03-15T01:26:48.686Z,49.62
2023-03-15T01:29:50.576Z,49.62
2023-03-15T01:32:52.443Z,49.62
2023-03-15T01:36:07.585Z,49.45
2023-03-15T01:39:11.292Z,49.42
2023-03-15T01:42:19.143Z,49.18
2023-03-15T01:45:58.733Z,49.20
2023-03-15T01:49:13.724Z,49.07
2023-03-15T01:52:22.011Z,49.09
2023-03-15T01:55:35.569Z,49.37
2023-03-15T01:58:44.015Z,48.89
2023-03-15T02:01:46.868Z,48.88
2023-03-15T02:04:55.529Z,48.52
2023-03-15T02:07:57.445Z,48.30
2023-03-15T02:11:04.882Z,48.37
2023-03-15T02:14:08.451Z,48.33
2023-03-15T02:17:13.321Z,48.37
2023-03-15T02:20:18.158Z,48.46
2023-03-15T02:23:22.273Z,48.44
2023-03-15T02:26:42.029Z,48.69
2023-03-15T02:29:43.821Z,48.71
2023-03-15T02:32:46.477Z,49.22
2023-03-15T02:35:48.534Z,49.70
2023-03-15T02:38:51.982Z,49.69
2023-03-15T02:41:57.318Z,49.96
2023-03-15T02:45:02.641Z,50.08
2023-03-15T02:48:06.611Z,50.08
2023-03-15T02:51:17.502Z,50.30
2023-03-15T02:54:19.184Z,50.31
2023-03-15T02:57:21.065Z,50.42
2023-03-15T03:00:22.928Z,50.91
2023-03-15T03:03:27.588Z,51.23
2023-03-15T03:06:29.382Z,51.70
2023-03-15T03:09:31.368Z,52.05
2023-03-15T03:12:33.767Z,52.38
2023-03-15T03:15:35.509Z,52.91
2023-03-15T03:18:37.499Z,52.92
2023-03-15T03:21:43.275Z,53.02
2023-03-15T03:24:46.826Z,53.84
2023-03-15T03:27:50.873Z,54.26
2023-03-15T03:30:53.998Z,54.98
2023-03-15T03:33:57.177Z,55.53
2023-03-15T03:36:59.628Z,56.14
2023-03-15T03:40:18.238Z,56.17
2023-03-15T03:43:20.302Z,56.70
2023-03-15T03:46:22.191Z,57.28
2023-03-15T03:49:27.354Z,57.75
2023-03-15T03:52:29.102Z,58.09
2023-03-15T03:55:38.931Z,58.48
2023-03-15T03:58:41.511Z,58.88
2023-03-15T04:01:51.346Z,58.66
2023-03-15T04:04:53.668Z,58.68
2023-03-15T04:07:56.384Z,59.06
2023-03-15T04:10:59.423Z,59.25
2023-03-15T04:14:04.277Z,58.82
2023-03-15T04:17:06.338Z,58.40
2023-03-15T04:20:11.870Z,58.40
2023-03-15T04:23:19.188Z,58.56
2023-03-15T04:26:36.217Z,58.83
2023-03-15T04:29:58.184Z,58.52
2023-03-15T04:33:20.210Z,58.10
2023-03-15T04:36:42.773Z,58.04
2023-03-15T04:40:07.199Z,58.35
2023-03-15T04:43:27.534Z,58.69
2023-03-15T04:46:47.822Z,58.79
2023-03-15T04:50:05.440Z,59.24
2023-03-15T04:53:15.051Z,59.68
2023-03-15T04:56:26.104Z,60.33
2023-03-15T04:59:57.304Z,61.13
2023-03-15T05:03:02.132Z,61.66
2023-03-15T05:06:20.937Z,62.40
2023-03-15T05:09:39.774Z,63.01
2023-03-15T05:13:14.231Z,64.01
2023-03-15T05:16:39.323Z,64.64
2023-03-15T05:19:51.787Z,65.10
2023-03-15T05:23:11.936Z,65.73
2023-03-15T05:26:46.596Z,65.81
2023-03-15T05:30:08.319Z,66.23
2023-03-15T05:33:29.292Z,66.67
2023-03-15T05:36:53.213Z,67.11
2023-03-15T05:40:21.338Z,67.51
2023-03-15T05:43:45.792Z,67.86
2023-03-15T05:47:07.639Z,68.66
2023-03-15T05:50:33.254Z,69.34
2023-03-15T05:54:01.314Z,69.33
2023-03-15T05:57:20.761Z,69.04
2023-03-15T06:00:49.329Z,69.43
2023-03-15T06:04:06.115Z,69.89
2023-03-15T06:07:09.579Z,70.42
2023-03-15T06:10:11.801Z,70.76
2023-03-15T06:13:14.485Z,70.64
2023-03-15T06:16:17.073Z,71.08
2023-03-15T06:19:22.570Z,70.90
2023-03-15T06:22:24.717Z,71.06
2023-03-15T06:25:33.383Z,71.10
2023-03-15T06:28:35.461Z,71.04
2023-03-15T06:31:37.322Z,70.77
2023-03-15T06:34:43.398Z,70.12
2023-03-15T06:37:46.054Z,69.97
2023-03-15T06:40:47.894Z,69.22
2023-03-15T06:43:49.807Z,68.88
2023-03-15T06:46:51.599Z,68.18
2023-03-15T06:49:54.460Z,68.04
2023-03-15T06:52:57.932Z,67.56
2023-03-15T06:56:00.135Z,67.35
2023-03-15T06:59:01.957Z,67.46
2023-03-15T07:02:03.760Z,67.92
2023-03-15T07:05:06.072Z,67.72
2023-03-15T07:08:07.843Z,67.80
2023-03-15T07:11:09.673Z,67.54
2023-03-15T07:14:11.570Z,67.24
2023-03-15T07:17:13.428Z,67.21
2023-03-15T07:20:15.261Z,67.26
2023-03-15T07:23:17.176Z,67.18
2023-03-15T07:26:18.931Z,66.86
2023-03-15T07:29:21.810Z,66.44
2023-03-15T07:32:23.775Z,66.15
2023-03-15T07:35:25.894Z,65.75
2023-03-15T07:38:31.202Z,65.50
2023-03-15T07:41:33.030Z,65.49
2023-03-15T07:44:57.273Z,65.20
2023-03-15T07:47:59.155Z,65.06
2023-03-15T07:51:01.072Z,64.80
2023-03-15T07:54:03.662Z,64.79
2023-03-15T07:57:05.522Z,64.47
2023-03-15T08:00:09.215Z,64.20
2023-03-15T08:03:13.906Z,64.14
2023-03-15T08:06:15.613Z,63.90
2023-03-15T08:09:17.431Z,63.86
2023-03-15T08:12:19.179Z,63.88
2023-03-15T08:15:20.991Z,63.55
2023-03-15T08:18:22.892Z,63.33
2023-03-15T08:21:24.631Z,63.41
2023-03-15T08:24:27.183Z,63.70
2023-03-15T08:27:28.916Z,63.87
2023-03-15T08:30:30.822Z,63.96
2023-03-15T08:33:33.032Z,63.63
2023-03-15T08:36:34.893Z,63.84
2023-03-15T08:39:36.656Z,63.83
2023-03-15T08:42:38.823Z,63.74
2023-03-15T08:45:59.708Z,63.73
2023-03-15T08:49:02.934Z,63.73
2023-03-15T08:52:05.024Z,63.52
2023-03-15T08:55:07.624Z,63.46
2023-03-15T08:58:09.368Z,63.16
2023-03-15T09:01:12.572Z,63.15
2023-03-15T09:04:14.317Z,63.11
2023-03-15T09:07:16.117Z,63.24
2023-03-15T09:10:18.224Z,63.62
2023-03-15T09:13:20.037Z,63.50
2023-03-15T09:16:21.800Z,63.77
2023-03-15T09:19:23.894Z,64.23
2023-03-15T09:22:38.599Z,64.54
2023-03-15T09:25:41.939Z,64.58
2023-03-15T09:28:43.763Z,64.68
2023-03-15T09:31:45.524Z,64.81
2023-03-15T09:34:47.366Z,64.88
2023-03-15T09:37:50.396Z,64.74
2023-03-15T09:40:58.127Z,64.85
2023-03-15T09:44:27.630Z,64.87
2023-03-15T09:47:41.070Z,65.13
2023-03-15T09:51:08.279Z,65.78
2023-03-15T09:54:18.718Z,66.40
2023-03-15T09:57:33.498Z,66.18
2023-03-15T10:00:43.800Z,66.36
2023-03-15T10:03:53.462Z,66.36
2023-03-15T10:07:01.044Z,66.28
2023-03-15T10:10:04.995Z,66.49
2023-03-15T10:13:18.150Z,66.79
2023-03-15T10:16:37.219Z,66.84
2023-03-15T10:19:51.039Z,66.91
2023-03-15T10:22:56.593Z,66.86
2023-03-15T10:25:58.499Z,66.87
2023-03-15T10:29:02.775Z,66.91
2023-03-15T10:32:06.171Z,67.20
2023-03-15T10:35:16.955Z,67.33
2023-03-15T10:38:21.295Z,67.15
2023-03-15T10:41:41.288Z,67.27
2023-03-15T10:44:43.036Z,67.13
2023-03-15T10:47:50.477Z,66.98
2023-03-15T10:50:58.999Z,67.15
2023-03-15T10:54:21.125Z,67.16
2023-03-15T10:57:28.058Z,67.20
2023-03-15T11:00:36.428Z,67.52
2023-03-15T11:03:38.725Z,67.44
2023-03-15T11:06:44.565Z,67.48
2023-03-15T11:09:53.381Z,67.28
2023-03-15T11:13:22.043Z,67.25
2023-03-15T11:16:23.899Z,67.20
2023-03-15T11:19:32.342Z,66.94
2023-03-15T11:22:34.083Z,67.16
2023-03-15T11:25:35.937Z,67.29
2023-03-15T11:28:48.542Z,67.41
2023-03-15T11:31:51.465Z,67.49
2023-03-15T11:35:02.485Z,67.64
2023-03-15T11:38:18.590Z,67.75
2023-03-15T11:41:44.655Z,67.82
2023-03-15T11:44:50.468Z,67.82
2023-03-15T11:48:01.616Z,67.93
2023-03-15T11:51:06.115Z,67.68
2023-03-15T11:54:13.640Z,68.03
2023-03-15T11:57:36.401Z,68.17
2023-03-15T12:00:38.105Z,68.02
2023-03-15T12:03:44.608Z,68.13
2023-03-15T12:06:46.512Z,68.28
2023-03-15T12:10:03.663Z,68.32
2023-03-15T12:13:19.573Z,68.10
2023-03-15T12:16:23.011Z,68.05
2023-03-15T12:19:26.210Z,68.32
2023-03-15T12:22:33.923Z,67.99
2023-03-15T12:25:52.641Z,67.72
2023-03-15T12:28:59.216Z,67.89
2023-03-15T12:32:04.055Z,68.10
2023-03-15T12:35:17.620Z,68.25
2023-03-15T12:38:22.924Z,67.90
2023-03-15T12:41:48.373Z,67.98
2023-03-15T12:44:50.248Z,67.67
2023-03-15T12:47:52.108Z,67.72
2023-03-15T12:51:00.785Z,67.52
2023-03-15T12:54:04.152Z,67.63
2023-03-15T12:57:06.907Z,67.52
2023-03-15T13:00:18.801Z,67.53
2023-03-15T13:03:22.410Z,67.52
2023-03-15T13:06:43.397Z,67.81
2023-03-15T13:10:15.417Z,67.61
2023-03-15T13:13:53.796Z,67.91
2023-03-15T13:17:17.379Z,67.76
2023-03-15T13:20:31.329Z,67.81
2023-03-15T13:23:37.252Z,68.20
2023-03-15T13:26:53.475Z,68.38
2023-03-15T13:29:56.377Z,68.49
2023-03-15T13:33:28.157Z,68.80
2023-03-15T13:36:53.762Z,68.78
2023-03-15T13:40:12.955Z,69.06
2023-03-15T13:43:14.787Z,68.98
2023-03-15T13:46:19.096Z,69.13
2023-03-15T13:49:22.162Z,68.87
2023-03-15T13:52:24.071Z,68.61
2023-03-15T13:55:32.679Z,68.79
2023-03-15T13:58:38.466Z,68.71
2023-03-15T14:01:42.542Z,68.26
2023-03-15T14:04:50.990Z,68.08
2023-03-15T14:08:03.243Z,67.91
2023-03-15T14:11:07.004Z,67.60
2023-03-15T14:14:23.269Z,67.32
2023-03-15T14:17:29.010Z,67.06
2023-03-15T14:21:00.037Z,67.10
2023-03-15T14:24:06.651Z,66.72
2023-03-15T14:27:21.237Z,66.72
2023-03-15T14:30:25.716Z,66.60
2023-03-15T14:33:39.687Z,66.36
2023-03-15T14:36:44.720Z,66.26
2023-03-15T14:39:46.471Z,66.46
2023-03-15T14:42:50.153Z,66.28
2023-03-15T14:45:51.985Z,65.74
2023-03-15T14:48:53.810Z,65.72
2023-03-15T14:52:05.127Z,65.62
2023-03-15T14:55:09.784Z,65.29
2023-03-15T14:58:14.804Z,64.88
2023-03-15T15:01:26.793Z,64.85
2023-03-15T15:04:39.001Z,64.52
2023-03-15T15:07:41.528Z,64.46
2023-03-15T15:10:46.921Z,64.31
2023-03-15T15:13:48.951Z,64.42
2023-03-15T15:16:57.094Z,64.45
2023-03-15T15:19:58.890Z,64.25
2023-03-15T15:23:01.413Z,64.31
2023-03-15T15:26:05.600Z,64.61
2023-03-15T15:29:09.723Z,64.34
2023-03-15T15:32:11.396Z,63.63
2023-03-15T15:35:15.646Z,63.76
2023-03-15T15:38:17.406Z,63.92
2023-03-15T15:41:23.923Z,63.78
2023-03-15T15:44:27.015Z,63.25
2023-03-15T15:47:28.963Z,63.05
2023-03-15T15:50:30.644Z,62.98
2023-03-15T15:53:33.413Z,63.00
2023-03-15T15:56:40.100Z,62.93
2023-03-15T15:59:41.848Z,62.90
2023-03-15T16:02:43.982Z,63.01
2023-03-15T16:05:45.957Z,63.12
2023-03-15T16:08:50.786Z,63.20
2023-03-15T16:11:52.635Z,63.38
2023-03-15T16:14:54.828Z,63.50
2023-03-15T16:17:56.684Z,63.77
2023-03-15T16:20:59.656Z,63.76
2023-03-15T16:24:08.903Z,63.83
2023-03-15T16:27:15.689Z,63.95
2023-03-15T16:30:23.624Z,64.33
2023-03-15T16:33:25.665Z,64.57
2023-03-15T16:36:28.539Z,64.81
2023-03-15T16:39:31.607Z,65.31
2023-03-15T16:42:33.655Z,65.44
2023-03-15T16:46:01.254Z,65.66
2023-03-15T16:49:03.963Z,66.02
2023-03-15T16:52:07.872Z,66.27
2023-03-15T16:55:14.234Z,66.42
2023-03-15T16:58:19.112Z,66.62
2023-03-15T17:01:20.972Z,66.74
2023-03-15T17:04:22.792Z,67.00
2023-03-15T17:07:32.913Z,67.29
2023-03-15T17:10:34.752Z,67.05
2023-03-15T17:13:40.813Z,67.20
2023-03-15T17:16:42.737Z,66.89
2023-03-15T17:19:44.853Z,67.04
2023-03-15T17:22:46.605Z,67.09
2023-03-15T17:25:49.273Z,67.19
2023-03-15T17:28:51.191Z,67.25
2023-03-15T17:31:53.167Z,67.18
2023-03-15T17:34:59.021Z,67.08
2023-03-15T17:38:03.270Z,66.94
2023-03-15T17:41:21.718Z,66.93
2023-03-15T17:44:23.465Z,66.73
2023-03-15T17:47:25.260Z,66.59
2023-03-15T17:50:29.476Z,66.57
2023-03-15T17:53:31.898Z,66.79
2023-03-15T17:56:33.670Z,66.50
2023-03-15T17:59:35.401Z,66.25
2023-03-15T18:02:40.716Z,66.47
2023-03-15T18:05:45.563Z,66.32
2023-03-15T18:08:48.642Z,66.21
2023-03-15T18:11:50.994Z,66.23
2023-03-15T18:14:52.805Z,66.16
2023-03-15T18:17:54.688Z,66.21
2023-03-15T18:20:56.718Z,65.68
2023-03-15T18:23:58.442Z,65.56
2023-03-15T18:27:01.840Z,65.17
2023-03-15T18:30:04.122Z,64.38
2023-03-15T18:33:06.439Z,64.00
2023-03-15T18:36:09.706Z,63.87
2023-03-15T18:39:11.591Z,63.43
2023-03-15T18:42:13.435Z,62.98
2023-03-15T18:45:23.837Z,62.24
2023-03-15T18:48:39.751Z,62.10
2023-03-15T18:51:42.507Z,61.89
2023-03-15T18:54:44.274Z,61.10
2023-03-15T18:57:46.350Z,60.57
2023-03-15T19:00:49.141Z,60.77
2023-03-15T19:03:52.240Z,60.81
2023-03-15T19:06:53.979Z,61.06
2023-03-15T19:09:55.701Z,60.72
2023-03-15T19:13:04.460Z,60.67
2023-03-15T19:16:06.850Z,60.40
2023-03-15T19:22:58.115Z,60.46
2023-03-15T19:26:09.217Z,60.82
2023-03-15T19:29:11.174Z,61.10
2023-03-15T19:32:12.935Z,61.23
2023-03-15T19:35:14.903Z,61.30
2023-03-15T19:38:17.508Z,61.37
2023-03-15T19:41:19.337Z,61.19
2023-03-15T19:44:22.529Z,61.38
2023-03-15T19:47:24.378Z,61.14
2023-03-15T19:50:31.052Z,61.23
2023-03-15T19:53:32.841Z,61.01
2023-03-15T19:56:34.674Z,60.79
2023-03-15T19:59:40.010Z,60.67
2023-03-15T20:02:42.612Z,60.29
2023-03-15T20:05:44.417Z,60.19
2023-03-15T20:08:46.232Z,60.19
2023-03-15T20:11:47.974Z,59.86
2023-03-15T20:14:49.966Z,59.73
2023-03-15T20:17:51.940Z,59.41
2023-03-15T20:20:54.231Z,59.40
2023-03-15T20:23:56.004Z,59.09
2023-03-15T20:26:57.800Z,58.84
2023-03-15T20:30:01.828Z,58.51
2023-03-15T20:33:03.681Z,58.82
2023-03-15T20:36:06.446Z,58.54
2023-03-15T20:39:08.635Z,58.67
2023-03-15T20:42:10.694Z,58.51
2023-03-15T20:45:13.837Z,58.60
2023-03-15T20:48:15.727Z,58.31
2023-03-15T20:51:17.486Z,58.43
2023-03-15T20:54:19.168Z,58.33
2023-03-15T20:57:21.230Z,58.55
2023-03-15T21:00:23.257Z,58.61
2023-03-15T21:03:25.332Z,58.54
2023-03-15T21:06:27.138Z,58.52
2023-03-15T21:09:28.846Z,58.51
2023-03-15T21:12:30.666Z,58.61
2023-03-15T21:15:37.246Z,58.46
2023-03-15T21:18:39.346Z,58.17
2023-03-15T21:21:43.881Z,58.10
2023-03-15T21:24:55.050Z,58.21
2023-03-15T21:27:58.123Z,58.17
2023-03-15T21:31:00.199Z,58.22
2023-03-15T21:34:02.078Z,58.16
2023-03-15T21:37:04.125Z,58.08
2023-03-15T21:40:07.058Z,57.72
2023-03-15T21:43:09.575Z,58.04
2023-03-15T21:46:14.088Z,57.82
2023-03-15T21:49:16.012Z,57.52
2023-03-15T21:52:17.801Z,57.86
2023-03-15T21:55:20.040Z,57.89
2023-03-15T21:58:21.861Z,57.69
2023-03-15T22:01:26.766Z,57.42
2023-03-15T22:04:28.622Z,57.44
2023-03-15T22:07:30.401Z,57.42
2023-03-15T22:10:32.155Z,57.25
2023-03-15T22:13:34.344Z,57.00
2023-03-15T22:16:36.409Z,57.10
2023-03-15T22:19:38.244Z,56.83
2023-03-15T22:22:40.372Z,56.79
2023-03-15T22:25:42.307Z,56.11
2023-03-15T22:28:44.029Z,55.40
2023-03-15T22:31:45.839Z,55.52
2023-03-15T22:34:50.366Z,55.38
2023-03-15T22:37:57.018Z,55.38
2023-03-15T22:41:03.319Z,55.33
2023-03-15T22:44:05.197Z,55.30
2023-03-15T22:47:07.238Z,55.02
2023-03-15T22:50:11.412Z,54.98
2023-03-15T22:53:13.179Z,54.60
2023-03-15T22:56:15.184Z,54.67
2023-03-15T22:59:17.429Z,54.91
2023-03-15T23:02:19.264Z,54.77
2023-03-15T23:05:21.359Z,55.08
2023-03-15T23:08:24.359Z,55.00
2023-03-15T23:11:26.081Z,55.15
2023-03-15T23:14:27.826Z,54.71
2023-03-15T23:17:29.639Z,54.90
2023-03-15T23:20:32.471Z,54.73
2023-03-15T23:23:34.193Z,54.63
2023-03-15T23:26:37.417Z,54.27
2023-03-15T23:29:53.319Z,54.16
2023-03-15T23:32:59.016Z,53.93
2023-03-15T23:36:02.142Z,53.69
2023-03-15T23:39:04.612Z,53.86
2023-03-15T23:42:06.991Z,53.98
2023-03-15T23:45:09.564Z,53.67
2023-03-15T23:48:12.530Z,53.53
2023-03-15T23:51:14.390Z,53.50
2023-03-15T23:54:16.088Z,53.72
2023-03-15T23:57:17.805Z,53.62
